Time;durP1;ratioP1;P1;durP2;ratioP2;P2;SDS_P1;SDS_P2;PMS_P1;PMS_P2;Temp;Humidity;BMP_temperature;BMP_pressure;BME280_temperature;BME280_humidity;BME280_pressure;Samples;Min_cycle;Max_cycle;Signal;HPM_P1;HPM_P2
2021/10/04 00:00:45;;;;;;;2.88;2.15;;;15.20;99.90;;;;;;5032682;28;20493;-74
2021/10/04 00:03:11;;;;;;;1.63;1.40;;;15.20;99.90;;;;;;5032943;28;20104;-73
2021/10/04 00:05:36;;;;;;;1.23;0.90;;;15.20;99.90;;;;;;5029229;28;20472;-72
2021/10/04 00:08:02;;;;;;;7.20;3.53;;;15.20;99.90;;;;;;5036522;28;20059;-72
2021/10/04 00:10:28;;;;;;;7.10;1.92;;;15.20;99.90;;;;;;5037672;28;20034;-74
2021/10/04 00:12:53;;;;;;;3.08;1.58;;;15.20;99.90;;;;;;5038040;28;20021;-74
2021/10/04 00:15:22;;;;;;;2.35;1.40;;;15.10;99.90;;;;;;5037862;28;20084;-72
2021/10/04 00:17:48;;;;;;;1.98;1.20;;;15.10;99.90;;;;;;5041923;28;20140;-73
2021/10/04 00:20:15;;;;;;;1.33;0.90;;;15.10;99.90;;;;;;5028109;28;20034;-73
2021/10/04 00:22:41;;;;;;;2.00;0.93;;;15.10;99.90;;;;;;5029547;28;20445;-73
2021/10/04 00:25:08;;;;;;;1.80;0.93;;;15.10;99.90;;;;;;5031701;28;20037;-72
2021/10/04 00:27:33;;;;;;;1.80;1.20;;;15.10;99.90;;;;;;5035623;28;20037;-71
2021/10/04 00:30:05;;;;;;;4.00;1.83;;;15.00;99.90;;;;;;5036245;28;20401;-71
2021/10/04 00:32:35;;;;;;;3.40;1.67;;;15.00;99.90;;;;;;5036438;28;20027;-73
2021/10/04 00:35:01;;;;;;;2.15;1.00;;;15.00;99.90;;;;;;5030640;28;20018;-72
2021/10/04 00:37:26;;;;;;;1.15;0.80;;;14.90;99.90;;;;;;5052996;28;20010;-72
2021/10/04 00:39:52;;;;;;;1.73;1.10;;;14.80;99.90;;;;;;5047063;28;20026;-77
2021/10/04 00:42:23;;;;;;;6.35;2.10;;;14.80;99.90;;;;;;5064006;28;20037;-77
2021/10/04 00:44:49;;;;;;;5.80;1.65;;;14.80;99.90;;;;;;5068635;28;20052;-77
2021/10/04 00:47:16;;;;;;;1.25;0.90;;;14.80;99.90;;;;;;5051655;28;20059;-78
2021/10/04 00:49:42;;;;;;;1.98;0.75;;;14.70;99.90;;;;;;5049693;28;20033;-78
2021/10/04 00:52:08;;;;;;;0.60;0.60;;;14.60;99.90;;;;;;5038971;28;20018;-78
2021/10/04 00:54:33;;;;;;;0.68;0.60;;;14.60;99.90;;;;;;5053215;28;20069;-76
2021/10/04 00:56:59;;;;;;;0.90;0.80;;;14.70;99.90;;;;;;5053755;28;20021;-75
2021/10/04 00:59:25;;;;;;;1.17;0.60;;;14.60;99.90;;;;;;5041806;28;20051;-78
2021/10/04 01:01:51;;;;;;;2.35;0.68;;;14.60;99.90;;;;;;5052553;28;20020;-79
2021/10/04 01:04:17;;;;;;;1.33;0.60;;;14.50;99.90;;;;;;5052087;28;20107;-74
2021/10/04 01:06:43;;;;;;;0.77;0.77;;;14.50;99.90;;;;;;5043032;28;20032;-78
2021/10/04 01:09:08;;;;;;;1.10;0.70;;;14.50;99.90;;;;;;5020184;28;20026;-77
2021/10/04 01:11:34;;;;;;;0.70;0.60;;;14.50;99.90;;;;;;5016720;28;20034;-78
2021/10/04 01:13:59;;;;;;;2.08;0.50;;;14.50;99.90;;;;;;5015324;28;20092;-79
2021/10/04 01:16:25;;;;;;;1.05;0.70;;;14.40;99.90;;;;;;5017246;28;20480;-77
2021/10/04 01:18:51;;;;;;;0.60;0.60;;;14.50;99.90;;;;;;5036467;28;20034;-80
2021/10/04 01:21:16;;;;;;;0.70;0.70;;;14.50;99.90;;;;;;5026673;28;20041;-78
2021/10/04 01:23:42;;;;;;;2.35;0.50;;;14.50;99.90;;;;;;5024985;28;20164;-79
2021/10/04 01:26:07;;;;;;;0.95;0.70;;;14.40;99.90;;;;;;5025063;28;20030;-77
2021/10/04 01:28:33;;;;;;;0.63;0.60;;;14.40;99.90;;;;;;5028240;28;20039;-77
2021/10/04 01:30:59;;;;;;;0.77;0.57;;;14.40;99.90;;;;;;5038353;28;20030;-76
2021/10/04 01:33:24;;;;;;;1.42;0.55;;;14.50;99.90;;;;;;5050546;28;20026;-78
2021/10/04 01:35:50;;;;;;;0.68;0.60;;;14.40;99.90;;;;;;5038891;28;20033;-75
2021/10/04 01:38:16;;;;;;;0.80;0.80;;;14.40;99.90;;;;;;5023741;28;20517;-75
2021/10/04 01:40:43;;;;;;;0.90;0.57;;;14.40;99.90;;;;;;5019838;28;20029;-75
2021/10/04 01:43:13;;;;;;;0.80;0.50;;;14.30;99.90;;;;;;5029701;28;20033;-75
2021/10/04 01:45:39;;;;;;;1.17;0.98;;;14.30;99.90;;;;;;5039422;28;20029;-76
2021/10/04 01:48:05;;;;;;;0.75;0.70;;;14.30;99.90;;;;;;5022701;28;20026;-75
2021/10/04 01:50:33;;;;;;;0.50;0.50;;;14.20;99.90;;;;;;5026324;28;20044;-76
2021/10/04 01:53:00;;;;;;;2.67;0.70;;;14.10;99.90;;;;;;5035605;28;20025;-76
2021/10/04 01:55:26;;;;;;;0.63;0.57;;;14.10;99.90;;;;;;5036139;28;20029;-77
2021/10/04 01:57:52;;;;;;;0.60;0.57;;;14.10;99.90;;;;;;5026057;28;20367;-76
2021/10/04 02:00:19;;;;;;;1.80;1.23;;;14.00;99.90;;;;;;5033710;28;20022;-76
2021/10/04 02:02:48;;;;;;;0.50;0.50;;;13.90;99.90;;;;;;5036189;28;20083;-77
2021/10/04 02:05:15;;;;;;;0.70;0.50;;;13.90;99.90;;;;;;5032672;28;20017;-77
2021/10/04 02:07:41;;;;;;;0.65;0.60;;;13.90;99.90;;;;;;5039978;28;20032;-80
2021/10/04 02:10:12;;;;;;;0.90;0.80;;;13.90;99.90;;;;;;5038272;28;20073;-79
2021/10/04 02:12:39;;;;;;;0.57;0.50;;;13.80;99.90;;;;;;5039002;28;20401;-79
2021/10/04 02:15:05;;;;;;;0.70;0.60;;;13.80;99.90;;;;;;5024820;28;20114;-78
2021/10/04 02:17:32;;;;;;;0.60;0.57;;;13.80;99.90;;;;;;5025636;28;20502;-81
2021/10/04 02:19:58;;;;;;;0.77;0.50;;;13.80;99.90;;;;;;5024975;28;20025;-80
2021/10/04 02:22:24;;;;;;;0.77;0.63;;;13.90;99.90;;;;;;5017111;28;20032;-79
2021/10/04 02:24:49;;;;;;;0.60;0.60;;;13.80;99.90;;;;;;5023785;28;20033;-79
2021/10/04 02:27:15;;;;;;;1.95;0.57;;;13.80;99.90;;;;;;5031821;28;20057;-78
2021/10/04 02:29:40;;;;;;;0.70;0.70;;;13.70;99.90;;;;;;5026177;28;20488;-79
2021/10/04 02:32:07;;;;;;;0.93;0.85;;;13.70;99.90;;;;;;5021768;28;20037;-76
2021/10/04 02:34:33;;;;;;;0.68;0.68;;;13.70;99.90;;;;;;5019846;28;20044;-76
2021/10/04 02:36:59;;;;;;;1.50;0.80;;;13.70;99.90;;;;;;5020018;28;20030;-79
2021/10/04 02:39:24;;;;;;;0.73;0.50;;;13.60;99.90;;;;;;5016885;28;20473;-77
2021/10/04 02:41:50;;;;;;;2.00;0.70;;;13.60;99.90;;;;;;5026400;28;20037;-77
2021/10/04 02:44:16;;;;;;;0.70;0.70;;;13.60;99.90;;;;;;5020149;28;20112;-80
2021/10/04 02:46:41;;;;;;;0.50;0.50;;;13.60;99.90;;;;;;5019683;28;20032;-80
2021/10/04 02:49:07;;;;;;;0.95;0.80;;;13.50;99.90;;;;;;5031665;28;20507;-77
2021/10/04 02:51:33;;;;;;;0.50;0.50;;;13.50;99.90;;;;;;5034915;28;20045;-76
2021/10/04 02:53:58;;;;;;;1.23;0.80;;;13.40;99.90;;;;;;5037112;28;20038;-77
2021/10/04 02:56:24;;;;;;;0.80;0.68;;;13.40;99.90;;;;;;5035348;28;20006;-76
2021/10/04 02:58:50;;;;;;;2.95;0.68;;;13.40;99.90;;;;;;5043396;28;20036;-77
2021/10/04 03:01:16;;;;;;;0.90;0.63;;;13.30;99.90;;;;;;5041814;28;20022;-78
2021/10/04 03:03:41;;;;;;;1.48;0.50;;;13.30;99.90;;;;;;5037323;28;20018;-78
2021/10/04 03:06:07;;;;;;;0.90;0.60;;;13.30;99.90;;;;;;5044520;28;20443;-78
2021/10/04 03:08:33;;;;;;;0.52;0.50;;;13.30;99.90;;;;;;5025357;28;20033;-80
2021/10/04 03:10:58;;;;;;;0.75;0.60;;;13.20;99.90;;;;;;5016000;28;20053;-80
2021/10/04 03:13:24;;;;;;;1.23;0.40;;;13.20;99.90;;;;;;5016411;28;20028;-79
2021/10/04 03:15:49;;;;;;;6.47;5.85;;;13.20;99.90;;;;;;5028328;28;20017;-79
2021/10/04 03:18:15;;;;;;;0.70;0.43;;;13.20;99.90;;;;;;5058898;23;20561;-79
2021/10/04 03:20:41;;;;;;;0.50;0.50;;;13.20;99.90;;;;;;5042251;28;20501;-79
2021/10/04 03:23:06;;;;;;;0.45;0.40;;;13.20;99.90;;;;;;5037840;28;20038;-79
2021/10/04 03:25:32;;;;;;;0.50;0.50;;;13.20;99.90;;;;;;5035940;28;20064;-79
2021/10/04 03:27:58;;;;;;;0.63;0.47;;;13.10;99.90;;;;;;5029267;28;20141;-79
2021/10/04 03:30:24;;;;;;;1.58;0.60;;;13.10;99.90;;;;;;5013358;28;20045;-79
2021/10/04 03:32:50;;;;;;;1.10;0.60;;;13.20;99.90;;;;;;4994685;28;20026;-79
2021/10/04 03:35:17;;;;;;;2.45;1.73;;;13.10;99.90;;;;;;4995903;28;20034;-79
2021/10/04 03:37:42;;;;;;;0.60;0.60;;;13.10;99.90;;;;;;4999261;28;20073;-78
2021/10/04 03:40:09;;;;;;;0.80;0.60;;;13.10;99.90;;;;;;4998784;28;20109;-78
2021/10/04 03:42:34;;;;;;;0.52;0.52;;;13.10;99.90;;;;;;5002658;28;20526;-79
2021/10/04 03:45:00;;;;;;;1.17;0.55;;;13.00;99.90;;;;;;5011583;28;20069;-78
2021/10/04 03:47:26;;;;;;;1.83;0.55;;;13.00;99.90;;;;;;5016791;28;20030;-79
2021/10/04 03:49:52;;;;;;;1.33;1.23;;;13.00;99.90;;;;;;5016701;28;20061;-81
2021/10/04 03:52:17;;;;;;;0.60;0.60;;;13.00;99.90;;;;;;5021834;28;20494;-80
2021/10/04 03:54:43;;;;;;;1.05;0.68;;;13.00;99.90;;;;;;5023252;28;20061;-80
2021/10/04 03:57:08;;;;;;;0.55;0.52;;;13.00;99.90;;;;;;5022917;28;20556;-80
2021/10/04 03:59:34;;;;;;;0.52;0.52;;;13.00;99.90;;;;;;5014101;28;20057;-80
2021/10/04 04:01:59;;;;;;;1.63;1.52;;;13.00;99.90;;;;;;5017495;28;20026;-79
2021/10/04 04:04:25;;;;;;;0.60;0.60;;;13.00;99.90;;;;;;5022348;28;20105;-80
2021/10/04 04:06:51;;;;;;;0.70;0.52;;;13.00;99.90;;;;;;5022738;28;20479;-78
2021/10/04 04:09:16;;;;;;;0.73;0.70;;;13.00;99.90;;;;;;5024438;28;20085;-79
2021/10/04 04:11:42;;;;;;;0.60;0.60;;;13.20;99.90;;;;;;5031012;28;20034;-78
2021/10/04 04:14:07;;;;;;;0.60;0.60;;;13.20;99.90;;;;;;5031623;28;20025;-78
2021/10/04 04:16:33;;;;;;;1.10;0.90;;;13.10;99.90;;;;;;5015008;28;20078;-80
2021/10/04 04:18:59;;;;;;;1.60;0.90;;;13.30;99.90;;;;;;5017409;28;20449;-79
2021/10/04 04:21:24;;;;;;;1.10;0.90;;;13.30;99.90;;;;;;5021238;28;20045;-78
2021/10/04 04:23:50;;;;;;;0.60;0.60;;;13.40;99.90;;;;;;5024959;28;20030;-80
2021/10/04 04:26:16;;;;;;;0.88;0.60;;;13.50;99.90;;;;;;5024550;28;20061;-80
2021/10/04 04:28:41;;;;;;;0.80;0.60;;;13.30;99.90;;;;;;5013577;28;20092;-79
2021/10/04 04:31:07;;;;;;;1.15;0.65;;;13.20;99.90;;;;;;5014730;28;20034;-78
2021/10/04 04:33:32;;;;;;;1.00;0.90;;;13.10;99.90;;;;;;5013983;28;20030;-79
2021/10/04 04:35:58;;;;;;;1.40;0.70;;;13.00;99.90;;;;;;5004644;28;20026;-78
2021/10/04 04:38:24;;;;;;;2.13;0.70;;;13.10;99.90;;;;;;5024433;28;20499;-79
2021/10/04 04:40:49;;;;;;;1.48;0.73;;;13.10;99.90;;;;;;5032505;28;20022;-78
2021/10/04 04:43:15;;;;;;;2.78;0.60;;;13.20;99.90;;;;;;5020123;28;20026;-78
2021/10/04 04:45:41;;;;;;;0.90;0.77;;;13.20;99.90;;;;;;5022609;28;20029;-78
2021/10/04 04:48:07;;;;;;;1.55;0.95;;;13.20;99.90;;;;;;5019561;28;20035;-79
2021/10/04 04:50:33;;;;;;;1.02;0.85;;;13.10;99.90;;;;;;5033078;28;20022;-78
2021/10/04 04:52:59;;;;;;;1.05;0.80;;;13.10;99.90;;;;;;5026531;28;20022;-79
2021/10/04 04:55:24;;;;;;;1.63;0.60;;;13.10;99.90;;;;;;5012997;28;20028;-79
2021/10/04 04:57:50;;;;;;;0.80;0.60;;;13.20;99.90;;;;;;5037197;28;20049;-78
2021/10/04 05:00:16;;;;;;;1.45;0.75;;;13.20;99.90;;;;;;5034510;28;20042;-78
2021/10/04 05:02:44;;;;;;;4.82;0.98;;;13.10;99.90;;;;;;5034485;28;20030;-78
2021/10/04 05:05:12;;;;;;;0.95;0.88;;;13.00;99.90;;;;;;5034289;28;20026;-79
2021/10/04 05:07:37;;;;;;;0.85;0.85;;;13.00;99.90;;;;;;5033641;28;20030;-79
2021/10/04 05:10:04;;;;;;;3.17;0.90;;;13.00;99.90;;;;;;5032808;28;20029;-77
2021/10/04 05:12:30;;;;;;;2.80;0.77;;;13.00;99.90;;;;;;5032076;28;20026;-77
2021/10/04 05:14:56;;;;;;;1.35;0.85;;;12.90;99.90;;;;;;5028333;28;20014;-77
2021/10/04 05:17:21;;;;;;;0.57;0.57;;;12.90;99.90;;;;;;5025067;28;20076;-78
2021/10/04 05:19:47;;;;;;;0.52;0.43;;;12.90;99.90;;;;;;5010677;28;20045;-79
2021/10/04 05:22:12;;;;;;;1.00;0.80;;;12.90;99.90;;;;;;5023429;28;20030;-78
2021/10/04 05:24:38;;;;;;;0.60;0.60;;;12.80;99.90;;;;;;5029290;28;20026;-78
2021/10/04 05:27:03;;;;;;;1.30;0.88;;;12.90;99.90;;;;;;5027989;28;20038;-78
2021/10/04 05:29:29;;;;;;;1.83;1.00;;;13.00;99.90;;;;;;5008347;28;20031;-78
2021/10/04 05:31:55;;;;;;;5.68;0.90;;;13.00;99.90;;;;;;5007064;28;20046;-78
2021/10/04 05:34:21;;;;;;;3.53;0.85;;;12.90;99.90;;;;;;5016562;28;20045;-78
2021/10/04 05:36:46;;;;;;;1.42;0.73;;;12.90;99.90;;;;;;5016294;28;20026;-77
2021/10/04 05:39:12;;;;;;;1.88;0.52;;;12.90;99.90;;;;;;5016026;28;20023;-78
2021/10/04 05:41:39;;;;;;;1.10;0.50;;;12.90;99.90;;;;;;4999864;28;20033;-78
2021/10/04 05:44:04;;;;;;;0.85;0.70;;;12.90;99.90;;;;;;5011162;28;20482;-78
2021/10/04 05:46:30;;;;;;;1.35;0.68;;;12.90;99.90;;;;;;5010608;28;20026;-78
2021/10/04 05:48:56;;;;;;;2.00;0.80;;;12.90;99.90;;;;;;5010613;28;20025;-77
2021/10/04 05:51:22;;;;;;;1.25;0.80;;;12.90;99.90;;;;;;5026955;28;20029;-78
2021/10/04 05:53:47;;;;;;;1.13;0.80;;;12.90;99.90;;;;;;5037995;28;20018;-79
2021/10/04 05:56:13;;;;;;;1.05;0.95;;;12.80;99.90;;;;;;5016735;28;20121;-79
2021/10/04 05:58:39;;;;;;;1.83;0.93;;;12.80;99.90;;;;;;5001180;28;20037;-79
2021/10/04 06:01:04;;;;;;;2.78;0.80;;;12.80;99.90;;;;;;5010128;28;20026;-78
2021/10/04 06:03:30;;;;;;;1.35;0.63;;;12.80;99.90;;;;;;5015741;28;20008;-79
2021/10/04 06:05:56;;;;;;;0.85;0.60;;;12.80;99.90;;;;;;5018495;28;20386;-79
2021/10/04 06:08:21;;;;;;;2.63;0.73;;;12.80;99.90;;;;;;5026019;28;20002;-78
2021/10/04 06:10:47;;;;;;;2.33;1.20;;;12.80;99.90;;;;;;5035083;28;20034;-78
2021/10/04 06:13:13;;;;;;;0.70;0.70;;;12.80;99.90;;;;;;5035918;28;20116;-78
2021/10/04 06:15:38;;;;;;;2.53;1.10;;;12.80;99.90;;;;;;5034785;28;20040;-78
2021/10/04 06:18:04;;;;;;;3.03;0.77;;;12.80;99.90;;;;;;5034727;28;20330;-78
2021/10/04 06:20:29;;;;;;;2.85;1.33;;;12.80;99.90;;;;;;5031627;28;20136;-77
2021/10/04 06:22:55;;;;;;;3.85;1.40;;;12.80;99.90;;;;;;5018665;28;20026;-78
2021/10/04 06:25:21;;;;;;;1.35;0.90;;;12.80;99.90;;;;;;5020910;28;20030;-78
2021/10/04 06:27:49;;;;;;;5.70;1.38;;;12.80;99.90;;;;;;5013303;28;20041;-78
2021/10/04 06:30:16;;;;;;;3.33;1.13;;;12.90;99.90;;;;;;5021286;28;20033;-77
2021/10/04 06:32:42;;;;;;;2.53;1.00;;;13.00;99.90;;;;;;5018384;28;20635;-78
2021/10/04 06:35:08;;;;;;;1.75;1.20;;;13.00;99.90;;;;;;5012362;28;20401;-78
2021/10/04 06:37:34;;;;;;;4.25;1.08;;;13.00;99.90;;;;;;5020635;28;20033;-77
2021/10/04 06:39:59;;;;;;;1.35;1.17;;;13.00;99.90;;;;;;5019890;28;20026;-78
2021/10/04 06:42:25;;;;;;;1.80;1.48;;;13.10;99.90;;;;;;5011472;28;20030;-77
2021/10/04 06:44:52;;;;;;;3.50;2.30;;;13.20;99.90;;;;;;5022072;28;20057;-78
2021/10/04 06:47:17;;;;;;;3.53;1.20;;;13.40;99.90;;;;;;5021120;28;20034;-78
2021/10/04 06:49:43;;;;;;;3.50;1.02;;;13.60;99.90;;;;;;5020427;28;20108;-79
2021/10/04 06:52:09;;;;;;;2.90;1.13;;;13.50;99.90;;;;;;5010536;28;20057;-78
2021/10/04 06:54:34;;;;;;;1.77;1.02;;;13.50;99.90;;;;;;5016531;28;20022;-77
2021/10/04 06:57:01;;;;;;;5.38;1.50;;;13.40;99.90;;;;;;5022730;28;20018;-78
2021/10/04 06:59:27;;;;;;;2.80;1.30;;;13.30;99.90;;;;;;5030688;28;20029;-78
2021/10/04 07:01:53;;;;;;;2.05;1.55;;;13.40;99.90;;;;;;5032170;28;20049;-80
2021/10/04 07:04:18;;;;;;;2.80;1.63;;;13.60;99.90;;;;;;5000958;28;20109;-78
2021/10/04 07:06:44;;;;;;;3.28;2.08;;;13.50;99.90;;;;;;5011748;28;20100;-78
2021/10/04 07:09:10;;;;;;;2.67;1.90;;;13.50;99.90;;;;;;5010491;28;20489;-79
2021/10/04 07:11:35;;;;;;;5.30;1.70;;;13.50;99.90;;;;;;5012921;28;20022;-79
2021/10/04 07:14:01;;;;;;;2.25;1.88;;;13.40;99.90;;;;;;5019970;28;20025;-79
2021/10/04 07:16:27;;;;;;;3.45;1.95;;;13.40;99.90;;;;;;5019321;28;20033;-79
2021/10/04 07:18:52;;;;;;;3.20;2.15;;;13.40;99.90;;;;;;5016679;28;20057;-79
2021/10/04 07:21:18;;;;;;;6.43;2.67;;;13.30;99.90;;;;;;5010732;28;20026;-79
2021/10/04 07:23:44;;;;;;;3.42;3.00;;;13.30;99.90;;;;;;5017209;28;20068;-78
2021/10/04 07:26:10;;;;;;;4.20;3.13;;;13.30;99.90;;;;;;5019257;28;20044;-78
2021/10/04 07:28:36;;;;;;;4.32;3.92;;;13.30;99.90;;;;;;5018098;28;20095;-78
2021/10/04 07:31:02;;;;;;;4.72;3.75;;;13.20;99.90;;;;;;5012949;28;20027;-79
2021/10/04 07:33:28;;;;;;;4.68;3.67;;;13.20;99.90;;;;;;5016456;28;20583;-79
2021/10/04 07:35:55;;;;;;;4.57;3.88;;;13.20;99.90;;;;;;5020100;28;20034;-79
2021/10/04 07:38:21;;;;;;;3.53;3.22;;;13.20;99.90;;;;;;5018939;28;20045;-79
2021/10/04 07:40:47;;;;;;;4.45;3.50;;;13.20;99.90;;;;;;5021972;28;20062;-77
2021/10/04 07:43:13;;;;;;;5.78;3.33;;;13.20;99.90;;;;;;5024231;28;20026;-79
2021/10/04 07:45:39;;;;;;;3.80;3.50;;;13.10;99.90;;;;;;5022792;28;20030;-79
2021/10/04 07:48:04;;;;;;;4.53;4.07;;;13.10;99.90;;;;;;5018442;28;20022;-78
2021/10/04 07:50:30;;;;;;;4.10;3.80;;;13.00;99.90;;;;;;5020686;28;20045;-79
2021/10/04 07:52:56;;;;;;;5.28;4.78;;;12.90;99.90;;;;;;5017656;28;20508;-78
2021/10/04 07:55:22;;;;;;;3.20;2.78;;;12.90;99.90;;;;;;5020382;28;20029;-78
2021/10/04 07:57:51;;;;;;;5.05;3.45;;;12.90;99.90;;;;;;5017752;28;20018;-77
2021/10/04 08:00:19;;;;;;;2.35;2.00;;;13.00;99.90;;;;;;5026476;28;20010;-78
2021/10/04 08:02:45;;;;;;;1.98;1.83;;;13.10;99.90;;;;;;5033387;28;20034;-78
2021/10/04 08:05:12;;;;;;;5.25;2.20;;;13.10;99.90;;;;;;5022884;28;20414;-81
2021/10/04 08:07:38;;;;;;;3.05;1.80;;;13.00;99.90;;;;;;5012197;28;20014;-78
2021/10/04 08:10:05;;;;;;;3.80;1.90;;;13.00;99.90;;;;;;5024507;28;20088;-78
2021/10/04 08:12:31;;;;;;;2.20;1.60;;;13.00;99.90;;;;;;5020460;28;20026;-78
2021/10/04 08:14:57;;;;;;;4.45;1.98;;;13.00;99.90;;;;;;5021410;28;20607;-79
2021/10/04 08:17:23;;;;;;;2.28;2.00;;;13.10;99.90;;;;;;5022068;28;20030;-79
2021/10/04 08:19:49;;;;;;;2.95;1.88;;;13.20;99.90;;;;;;5022981;28;20030;-77
2021/10/04 08:22:16;;;;;;;5.80;1.95;;;13.20;99.90;;;;;;5028203;28;20033;-78
2021/10/04 08:24:42;;;;;;;3.50;2.20;;;13.30;99.90;;;;;;5027192;28;20017;-78
2021/10/04 08:27:08;;;;;;;5.10;2.13;;;13.30;99.90;;;;;;5024547;28;20525;-77
2021/10/04 08:29:33;;;;;;;2.45;2.25;;;13.40;99.90;;;;;;5032790;28;20034;-77
2021/10/04 08:31:59;;;;;;;3.80;2.42;;;13.40;99.90;;;;;;5026985;28;20041;-79
2021/10/04 08:34:25;;;;;;;3.33;2.63;;;13.50;99.90;;;;;;5023028;28;20025;-79
2021/10/04 08:36:50;;;;;;;2.20;2.00;;;13.60;99.90;;;;;;5012833;28;20501;-79
2021/10/04 08:39:16;;;;;;;2.50;2.30;;;13.50;99.90;;;;;;5027594;28;20068;-78
2021/10/04 08:41:42;;;;;;;3.10;2.30;;;13.50;99.90;;;;;;5033236;28;20057;-78
2021/10/04 08:44:11;;;;;;;3.40;2.10;;;13.50;99.90;;;;;;5034053;28;20044;-79
2021/10/04 08:46:39;;;;;;;3.58;1.98;;;13.60;99.90;;;;;;5022047;28;20049;-78
2021/10/04 08:49:05;;;;;;;2.72;2.00;;;13.40;99.90;;;;;;5030387;28;20049;-79
2021/10/04 08:51:31;;;;;;;1.63;1.52;;;13.30;99.90;;;;;;5038599;28;20094;-78
2021/10/04 08:53:57;;;;;;;2.67;1.90;;;13.40;99.90;;;;;;5035886;28;20022;-77
2021/10/04 08:56:22;;;;;;;2.20;2.00;;;13.40;99.90;;;;;;5036039;28;20022;-78
2021/10/04 08:58:48;;;;;;;2.92;2.05;;;13.30;99.90;;;;;;5029176;28;20080;-79
2021/10/04 09:01:20;;;;;;;2.35;2.00;;;13.40;99.90;;;;;;5023755;28;20071;-79
2021/10/04 09:03:52;;;;;;;3.63;2.10;;;13.30;99.90;;;;;;5013927;28;20109;-79
2021/10/04 09:06:27;;;;;;;2.53;2.03;;;13.40;99.90;;;;;;5018803;28;20121;-77
2021/10/04 09:09:05;;;;;;;3.45;2.35;;;13.50;99.90;;;;;;5013600;28;20027;-74
2021/10/04 09:11:50;;;;;;;2.30;2.00;;;13.50;99.90;;;;;;5014246;28;20030;-73
2021/10/04 09:14:19;;;;;;;4.65;1.75;;;13.60;99.90;;;;;;5020058;28;20725;-74
2021/10/04 09:16:59;;;;;;;3.75;2.17;;;13.50;99.90;;;;;;5011422;28;20022;-74
2021/10/04 09:19:29;;;;;;;3.33;2.35;;;13.60;99.90;;;;;;5035063;23;20510;-74
2021/10/04 09:22:17;;;;;;;3.83;3.50;;;13.60;99.90;;;;;;5005800;28;20109;-74
2021/10/04 09:24:44;;;;;;;1.88;1.77;;;13.60;99.90;;;;;;4997620;28;20026;-75
2021/10/04 09:27:32;;;;;;;2.35;1.98;;;13.50;99.90;;;;;;5013347;28;20056;-74
2021/10/04 09:30:12;;;;;;;2.05;1.83;;;13.50;99.90;;;;;;4993352;28;20030;-75
2021/10/04 09:32:44;;;;;;;2.42;1.40;;;13.50;99.90;;;;;;4990750;28;20056;-72
2021/10/04 09:35:17;;;;;;;1.70;1.60;;;13.60;99.90;;;;;;4991467;28;20030;-74
2021/10/04 09:37:44;;;;;;;2.50;2.13;;;13.80;99.90;;;;;;4986932;28;20550;-75
2021/10/04 09:40:28;;;;;;;1.67;1.58;;;13.80;99.90;;;;;;4994731;28;20027;-74
2021/10/04 09:42:54;;;;;;;3.95;1.95;;;14.00;99.90;;;;;;5020576;28;20037;-74
2021/10/04 09:45:20;;;;;;;2.42;1.92;;;14.10;99.90;;;;;;5013235;28;20034;-75
2021/10/04 09:47:46;;;;;;;4.18;1.50;;;14.10;99.90;;;;;;5005806;28;20019;-75
2021/10/04 09:50:13;;;;;;;2.35;1.00;;;14.10;99.90;;;;;;5004939;28;20105;-74
2021/10/04 09:52:45;;;;;;;1.77;1.20;;;14.10;99.90;;;;;;4986237;28;20041;-74
2021/10/04 09:55:21;;;;;;;2.00;1.30;;;14.10;99.90;;;;;;4990960;28;20037;-74
2021/10/04 09:58:14;;;;;;;3.80;1.42;;;14.00;99.90;;;;;;4992139;28;20015;-75
2021/10/04 10:00:57;;;;;;;1.58;1.48;;;14.10;99.90;;;;;;5000669;28;20021;-76
2021/10/04 10:03:26;;;;;;;1.35;0.85;;;13.90;99.90;;;;;;5001379;28;20034;-75
2021/10/04 10:05:53;;;;;;;6.15;2.53;;;14.00;99.90;;;;;;4993609;28;20023;-76
2021/10/04 10:08:21;;;;;;;1.77;1.33;;;14.20;99.90;;;;;;4991427;28;20393;-76
2021/10/04 10:10:49;;;;;;;1.10;0.90;;;14.30;99.90;;;;;;4988997;28;20026;-76
2021/10/04 10:13:17;;;;;;;1.25;0.90;;;14.70;99.90;;;;;;4994912;28;20090;-76
2021/10/04 10:15:49;;;;;;;2.45;0.82;;;15.10;99.90;;;;;;4987752;28;20447;-75
2021/10/04 10:18:25;;;;;;;1.33;1.00;;;15.10;99.90;;;;;;4996030;28;20038;-79
2021/10/04 10:21:15;;;;;;;4.00;1.63;;;15.00;99.90;;;;;;4997218;28;20026;-79
2021/10/04 10:23:50;;;;;;;2.17;1.15;;;15.10;99.90;;;;;;4993797;28;20494;-81
2021/10/04 10:26:41;;;;;;;3.42;1.23;;;15.30;99.90;;;;;;5008438;28;20026;-80
2021/10/04 10:29:13;;;;;;;;;;;14.90;99.90;;;;;;5007763;28;20031;-80
2021/10/04 10:31:55;;;;;;;0.80;0.60;;;15.10;99.90;;;;;;5002536;28;19961;-80
2021/10/04 10:34:29;;;;;;;0.85;0.63;;;15.50;99.90;;;;;;5004917;28;20022;-78
2021/10/04 10:37:07;;;;;;;0.93;0.70;;;15.60;99.90;;;;;;5008338;28;20027;-79
2021/10/04 10:39:46;;;;;;;1.27;0.60;;;15.70;99.90;;;;;;5009829;28;20050;-77
2021/10/04 10:42:35;;;;;;;1.77;0.70;;;15.90;99.90;;;;;;5009436;28;20022;-78
2021/10/04 10:45:00;;;;;;;1.17;0.50;;;15.40;99.90;;;;;;5015684;28;20375;-78
2021/10/04 10:47:38;;;;;;;0.30;0.30;;;15.40;99.90;;;;;;5009146;28;20041;-79
2021/10/04 10:50:23;;;;;;;0.40;0.40;;;15.40;99.90;;;;;;5000563;28;20062;-80
2021/10/04 10:53:04;;;;;;;0.57;0.40;;;15.20;99.90;;;;;;4980017;28;20080;-79
2021/10/04 10:55:43;;;;;;;0.60;0.30;;;15.60;99.90;;;;;;4993509;28;20027;-78
2021/10/04 10:58:13;;;;;;;0.50;0.50;;;15.70;99.90;;;;;;5006028;28;20015;-78
2021/10/04 11:00:50;;;;;;;0.63;0.45;;;15.70;99.90;;;;;;5011613;28;20033;-78
2021/10/04 11:03:26;;;;;;;2.30;0.70;;;15.50;99.90;;;;;;5016304;28;20037;-77
2021/10/04 11:06:07;;;;;;;1.90;0.98;;;15.60;99.90;;;;;;5016870;28;20118;-77
2021/10/04 11:08:35;;;;;;;0.77;0.70;;;15.40;99.90;;;;;;5003046;28;20394;-78
2021/10/04 11:11:01;;;;;;;1.23;1.08;;;15.60;99.90;;;;;;4997159;28;20394;-78
2021/10/04 11:13:36;;;;;;;0.77;0.77;;;15.80;99.90;;;;;;4993168;28;20027;-78
2021/10/04 11:16:05;;;;;;;1.58;0.90;;;15.70;99.90;;;;;;4988159;28;20029;-77
2021/10/04 11:18:45;;;;;;;0.98;0.88;;;15.50;99.90;;;;;;4994894;28;20030;-78
2021/10/04 11:21:15;;;;;;;0.97;0.87;;;15.50;99.90;;;;;;4997887;28;20022;-79
2021/10/04 11:23:43;;;;;;;1.13;0.77;;;15.50;99.90;;;;;;4999832;28;20128;-79
2021/10/04 11:26:12;;;;;;;0.73;0.70;;;15.60;99.90;;;;;;4998379;28;20027;-78
2021/10/04 11:31:00;;;;;;;1.02;0.82;;;16.00;99.90;;;;;;5122786;27;1912818;-79
2021/10/04 11:33:28;;;;;;;1.17;0.80;;;16.40;99.90;;;;;;5166824;27;20097;-79
2021/10/04 11:36:08;;;;;;;0.70;0.60;;;16.30;99.90;;;;;;5175511;27;20030;-79
2021/10/04 11:38:44;;;;;;;1.67;0.70;;;16.30;99.90;;;;;;5168073;27;20358;-78
2021/10/04 11:41:11;;;;;;;2.55;0.90;;;16.00;99.90;;;;;;5177810;27;20027;-77
2021/10/04 11:43:46;;;;;;;0.93;0.60;;;15.70;99.90;;;;;;5156153;22;20089;-74
2021/10/04 11:46:17;;;;;;;0.95;0.70;;;15.60;99.90;;;;;;5126082;28;20038;-73
2021/10/04 11:48:43;;;;;;;0.60;0.60;;;16.10;99.90;;;;;;5119215;28;20024;-74
2021/10/04 11:51:16;;;;;;;0.70;0.65;;;15.80;99.90;;;;;;5113158;28;20490;-76
2021/10/04 11:53:43;;;;;;;0.60;0.60;;;15.60;99.90;;;;;;5108531;28;20028;-73
2021/10/04 11:56:10;;;;;;;1.80;0.80;;;15.40;99.90;;;;;;5115781;28;20024;-77
2021/10/04 11:58:47;;;;;;;0.65;0.65;;;15.40;99.90;;;;;;5114170;28;20023;-75
2021/10/04 12:01:13;;;;;;;0.50;0.50;;;15.50;99.90;;;;;;5093935;28;20028;-74
2021/10/04 12:03:39;;;;;;;0.45;0.43;;;15.80;99.90;;;;;;5114710;28;20391;-73
2021/10/04 12:06:08;;;;;;;0.73;0.45;;;15.60;99.90;;;;;;5095126;28;20146;-76
2021/10/04 12:08:40;;;;;;;0.60;0.50;;;15.50;99.90;;;;;;5117051;28;20027;-73
2021/10/04 12:11:08;;;;;;;1.65;0.70;;;15.50;99.90;;;;;;5112284;28;20024;-75
2021/10/04 12:13:40;;;;;;;0.93;0.80;;;15.60;99.90;;;;;;5117610;28;20051;-73
2021/10/04 12:16:09;;;;;;;1.10;0.60;;;15.80;99.90;;;;;;5110047;28;20481;-75
2021/10/04 12:18:48;;;;;;;0.93;0.70;;;16.00;99.90;;;;;;5114550;28;20464;-73
2021/10/04 12:21:24;;;;;;;0.60;0.50;;;16.20;99.90;;;;;;5115273;28;20051;-75
2021/10/04 12:24:05;;;;;;;1.20;0.85;;;16.80;99.90;;;;;;5113254;28;20061;-75
2021/10/04 12:26:31;;;;;;;3.38;0.60;;;16.70;99.90;;;;;;5112877;28;20107;-74
2021/10/04 12:28:56;;;;;;;0.90;0.52;;;16.20;99.90;;;;;;5113041;28;20491;-75
2021/10/04 12:31:34;;;;;;;1.10;0.68;;;16.30;99.90;;;;;;5113407;28;20118;-74
2021/10/04 12:34:00;;;;;;;1.30;0.95;;;16.70;99.90;;;;;;5103310;28;20012;-75
2021/10/04 12:36:26;;;;;;;0.90;0.60;;;16.30;99.90;;;;;;5119996;28;20051;-74
2021/10/04 12:38:58;;;;;;;1.10;0.75;;;16.10;99.90;;;;;;5113207;28;20073;-74
2021/10/04 12:42:01;;;;;;;1.17;0.50;;;16.40;99.90;;;;;;5103834;28;20036;-75
2021/10/04 12:44:38;;;;;;;2.47;0.57;;;16.30;99.90;;;;;;5048557;28;20123;-74
2021/10/04 12:47:12;;;;;;;0.98;0.68;;;16.70;99.90;;;;;;5098497;28;20032;-74
2021/10/04 12:49:38;;;;;;;0.95;0.60;;;16.80;99.90;;;;;;5078863;28;20040;-76
2021/10/04 12:52:19;;;;;;;0.85;0.50;;;16.70;99.90;;;;;;5102305;28;20020;-73
2021/10/04 12:54:48;;;;;;;1.92;0.60;;;17.10;99.90;;;;;;5092901;28;20020;-75